Time;durP1;ratioP1;P1;durP2;ratioP2;P2;SDS_P1;SDS_P2;PMS_P1;PMS_P2;Temp;Humidity;BMP_temperature;BMP_pressure;BME280_temperature;BME280_humidity;BME280_pressure;Samples;Min_cycle;Max_cycle;Signal;HPM_P1;HPM_P2
2022/01/06 00:01:00;;;;;;;5.13;3.40;;;;;;;3.22;100.00;97921.78;5105450;28;20237;-68
2022/01/06 00:03:27;;;;;;;6.10;2.77;;;;;;;3.22;100.00;97920.94;5105146;28;20229;-68
2022/01/06 00:05:54;;;;;;;5.17;2.97;;;;;;;3.16;100.00;97916.81;5103061;28;20218;-68
2022/01/06 00:08:21;;;;;;;5.90;3.00;;;;;;;3.13;100.00;97916.94;5103028;28;20210;-68
2022/01/06 00:10:49;;;;;;;5.10;3.03;;;;;;;3.08;100.00;97912.84;5105007;28;20209;-68
2022/01/06 00:13:20;;;;;;;7.80;3.60;;;;;;;3.04;100.00;97922.56;5104910;28;20242;-68
2022/01/06 00:16:02;;;;;;;8.70;4.03;;;;;;;3.07;100.00;97917.22;5102951;28;20723;-68
2022/01/06 00:23:07;;;;;;;5.70;3.07;;;;;;;3.10;100.00;97917.09;5105509;28;20302;-68
2022/01/06 00:24:24;;;;;;;8.87;3.13;;;;;;;3.09;100.00;97918.00;5107703;28;20356;-68
2022/01/06 00:26:52;;;;;;;6.37;3.03;;;;;;;3.05;100.00;97919.03;5104404;28;20680;-68
2022/01/06 00:29:20;;;;;;;6.90;3.17;;;;;;;3.03;100.00;97918.28;5110486;28;20225;-68
2022/01/06 00:31:47;;;;;;;6.50;3.30;;;;;;;3.01;100.00;97921.88;5110184;28;20229;-68
2022/01/06 00:34:14;;;;;;;5.80;3.20;;;;;;;3.08;100.00;97923.28;5107565;28;20561;-68
2022/01/06 00:36:41;;;;;;;10.40;3.70;;;;;;;3.14;100.00;97923.91;5105978;28;20699;-68
2022/01/06 00:39:09;;;;;;;7.60;3.17;;;;;;;3.14;100.00;97925.63;5102921;28;20586;-68
2022/01/06 00:41:37;;;;;;;5.53;3.30;;;;;;;3.13;100.00;97914.34;5102349;28;20243;-68
2022/01/06 00:44:06;;;;;;;7.67;3.80;;;;;;;3.23;100.00;97920.88;5105035;28;20580;-68
2022/01/06 00:46:33;;;;;;;6.20;3.10;;;;;;;3.21;100.00;97914.88;5105798;28;20206;-68
2022/01/06 00:48:59;;;;;;;8.73;3.33;;;;;;;3.26;100.00;97906.84;5102437;28;20614;-68
2022/01/06 00:51:26;;;;;;;4.40;3.03;;;;;;;3.32;100.00;97917.88;5102625;28;20233;-68
2022/01/06 00:53:52;;;;;;;6.23;3.20;;;;;;;3.37;100.00;97926.31;5103134;28;20221;-68
2022/01/06 00:56:18;;;;;;;6.43;2.93;;;;;;;3.39;100.00;97927.13;5109123;28;20209;-68
2022/01/06 00:58:45;;;;;;;6.47;3.30;;;;;;;3.43;100.00;97926.06;5109187;28;20221;-69
2022/01/06 01:01:13;;;;;;;7.53;3.00;;;;;;;3.47;100.00;97922.41;5108551;28;20241;-68
2022/01/06 01:03:39;;;;;;;9.53;3.33;;;;;;;3.38;100.00;97933.28;5107780;28;20328;-68
2022/01/06 01:06:06;;;;;;;5.87;3.10;;;;;;;3.36;100.00;97929.03;5105870;28;20234;-68
2022/01/06 01:08:34;;;;;;;8.93;3.60;;;;;;;3.37;100.00;97928.94;5108972;28;20228;-68
2022/01/06 01:11:01;;;;;;;7.30;3.00;;;;;;;3.44;100.00;97938.22;5102053;28;20652;-68
2022/01/06 01:13:30;;;;;;;3.63;3.10;;;;;;;3.43;100.00;97949.56;5103691;28;20219;-68
2022/01/06 01:16:06;;;;;;;5.33;3.23;;;;;;;3.47;100.00;97953.75;5105864;28;20297;-68
2022/01/06 01:18:34;;;;;;;6.57;3.27;;;;;;;3.44;100.00;97959.13;5101209;28;20271;-68
2022/01/06 01:21:00;;;;;;;7.40;3.10;;;;;;;3.51;100.00;97957.94;5101287;28;20325;-68
2022/01/06 01:23:27;;;;;;;8.33;3.90;;;;;;;3.51;100.00;97962.31;5104560;28;20207;-68
2022/01/06 01:25:53;;;;;;;11.70;3.30;;;;;;;3.52;100.00;97962.25;5105209;28;20214;-68
2022/01/06 01:28:20;;;;;;;8.83;3.70;;;;;;;3.48;100.00;97959.84;5101867;28;20218;-68
2022/01/06 01:31:02;;;;;;;8.63;3.70;;;;;;;3.42;100.00;97966.16;5101581;28;20237;-68
2022/01/06 01:33:30;;;;;;;5.27;3.47;;;;;;;3.50;100.00;97964.09;5095376;28;20216;-68
2022/01/06 01:35:58;;;;;;;6.53;2.90;;;;;;;3.50;100.00;97958.84;5105381;28;20332;-68
2022/01/06 01:38:25;;;;;;;8.30;3.50;;;;;;;3.55;100.00;97964.69;5095207;28;20215;-68
2022/01/06 01:40:51;;;;;;;6.63;3.07;;;;;;;3.58;100.00;97972.41;5095135;28;20234;-68
2022/01/06 01:43:18;;;;;;;7.73;3.70;;;;;;;3.53;100.00;97963.94;5094906;28;20212;-68
2022/01/06 01:45:46;;;;;;;7.10;3.20;;;;;;;3.55;100.00;97962.09;5093421;28;20217;-68
2022/01/06 01:48:21;;;;;;;8.53;3.13;;;;;;;3.55;100.00;97969.94;5094807;28;20218;-68
2022/01/06 01:50:47;;;;;;;5.53;3.00;;;;;;;3.51;100.00;97964.91;5094978;28;20684;-69
2022/01/06 01:53:15;;;;;;;5.33;3.47;;;;;;;3.53;100.00;97982.22;5094612;28;20680;-69
2022/01/06 01:55:42;;;;;;;9.23;3.60;;;;;;;3.55;100.00;97975.16;5094991;28;20211;-68
2022/01/06 01:58:08;;;;;;;7.83;3.63;;;;;;;3.47;100.00;97979.88;5094868;28;20215;-68
2022/01/06 02:00:35;;;;;;;6.37;3.33;;;;;;;3.54;100.00;97986.53;5094726;28;20230;-69
2022/01/06 02:03:02;;;;;;;8.23;3.50;;;;;;;3.57;100.00;97990.78;5094579;28;20218;-68
2022/01/06 02:05:29;;;;;;;6.97;3.30;;;;;;;3.60;100.00;97990.66;5094971;28;20215;-68
2022/01/06 02:07:58;;;;;;;4.23;2.80;;;;;;;3.63;100.00;97990.50;5094572;28;20277;-68
2022/01/06 02:10:27;;;;;;;8.67;3.17;;;;;;;3.60;100.00;97983.66;5100378;28;20215;-68
2022/01/06 02:12:55;;;;;;;7.07;3.00;;;;;;;3.63;100.00;97986.13;5102507;28;20218;-68
2022/01/06 02:15:22;;;;;;;6.63;3.40;;;;;;;3.55;100.00;97983.00;5101529;28;20295;-68
2022/01/06 02:17:49;;;;;;;5.67;3.50;;;;;;;3.50;100.00;97979.75;5100730;28;20207;-68
2022/01/06 02:20:19;;;;;;;4.77;3.00;;;;;;;3.56;100.00;97984.69;5101992;28;20257;-68
2022/01/06 02:22:47;;;;;;;6.07;3.10;;;;;;;3.55;100.00;97971.72;5104491;28;20593;-68
2022/01/06 02:25:15;;;;;;;7.47;3.60;;;;;;;3.45;100.00;97973.88;5100831;28;20210;-68
2022/01/06 02:27:43;;;;;;;6.40;3.43;;;;;;;3.38;100.00;97975.06;5100334;28;20679;-68
2022/01/06 02:30:11;;;;;;;5.40;3.37;;;;;;;3.36;100.00;97976.03;5102325;28;20242;-68
2022/01/06 02:32:38;;;;;;;3.70;3.17;;;;;;;3.28;100.00;97989.41;5104233;28;20680;-68
2022/01/06 02:35:07;;;;;;;5.37;3.60;;;;;;;3.30;100.00;97991.97;5100864;28;20661;-68
2022/01/06 02:37:35;;;;;;;7.07;3.30;;;;;;;3.28;100.00;97989.41;5098733;28;20215;-68
2022/01/06 02:40:02;;;;;;;6.53;3.40;;;;;;;3.23;100.00;97991.38;5102288;28;20225;-68
2022/01/06 02:42:30;;;;;;;5.80;3.30;;;;;;;3.25;100.00;97994.75;5103887;28;20671;-68
2022/01/06 02:44:56;;;;;;;5.53;3.03;;;;;;;3.21;100.00;97998.44;5100273;28;20225;-68
2022/01/06 02:47:23;;;;;;;6.63;3.20;;;;;;;3.27;100.00;97999.91;5100069;28;20210;-68
2022/01/06 02:49:49;;;;;;;5.20;3.47;;;;;;;3.25;100.00;97999.97;5101896;28;20587;-68
2022/01/06 02:52:16;;;;;;;7.30;3.07;;;;;;;3.27;100.00;97987.72;5104088;28;20214;-68
2022/01/06 02:54:43;;;;;;;6.87;3.50;;;;;;;3.29;100.00;97998.09;5100646;28;20210;-68
2022/01/06 02:57:10;;;;;;;5.37;3.00;;;;;;;3.28;100.00;97999.88;5100129;28;20225;-68
2022/01/06 02:59:37;;;;;;;7.13;3.13;;;;;;;3.30;100.00;98012.88;5101209;28;20236;-68
2022/01/06 03:02:04;;;;;;;7.03;3.00;;;;;;;3.30;100.00;98013.69;5103813;28;20252;-68
2022/01/06 03:04:30;;;;;;;4.77;3.07;;;;;;;3.33;100.00;98028.41;5098894;28;20218;-68
2022/01/06 03:06:56;;;;;;;6.70;3.00;;;;;;;3.34;100.00;98019.63;5099651;28;20210;-69
2022/01/06 03:09:36;;;;;;;4.60;3.47;;;;;;;3.31;100.00;98031.06;5105799;28;20209;-68
2022/01/06 03:12:05;;;;;;;6.37;3.17;;;;;;;3.34;100.00;98028.34;5103307;28;20219;-68
2022/01/06 03:14:32;;;;;;;6.23;3.50;;;;;;;3.30;100.00;98029.38;5099566;28;20215;-68
2022/01/06 03:16:58;;;;;;;5.70;3.20;;;;;;;3.50;100.00;98042.47;5099901;28;20206;-68
2022/01/06 03:19:25;;;;;;;7.90;3.20;;;;;;;3.45;100.00;98041.81;5102221;28;20234;-68
2022/01/06 03:21:51;;;;;;;6.50;3.23;;;;;;;3.55;100.00;98037.84;5103161;28;20719;-68
2022/01/06 03:24:20;;;;;;;7.43;3.43;;;;;;;3.46;100.00;98051.31;5099366;28;20207;-68
2022/01/06 03:26:46;;;;;;;6.43;3.13;;;;;;;3.29;100.00;98048.56;5099926;28;20284;-68
2022/01/06 03:29:14;;;;;;;8.47;3.57;;;;;;;3.22;100.00;98052.34;5091494;28;20211;-68
2022/01/06 03:31:40;;;;;;;6.20;3.43;;;;;;;3.26;100.00;98045.25;5093532;28;20718;-68
2022/01/06 03:34:08;;;;;;;12.37;4.07;;;;;;;3.24;100.00;98047.91;5093363;28;20580;-68
2022/01/06 03:36:34;;;;;;;7.70;3.53;;;;;;;3.26;100.00;98053.94;5092900;28;20218;-68
2022/01/06 03:39:01;;;;;;;6.50;3.30;;;;;;;3.30;100.00;98052.88;5093206;28;20210;-68
2022/01/06 03:41:27;;;;;;;5.83;3.50;;;;;;;3.17;100.00;98043.03;5093164;28;20238;-68
2022/01/06 03:43:54;;;;;;;8.37;3.37;;;;;;;3.08;100.00;98044.25;5093368;28;20210;-68
2022/01/06 03:46:22;;;;;;;5.63;3.50;;;;;;;2.99;100.00;98039.38;5093040;28;20691;-68
2022/01/06 03:48:48;;;;;;;4.90;3.37;;;;;;;2.98;100.00;98055.97;5093314;28;20222;-68
2022/01/06 03:51:18;;;;;;;7.80;3.30;;;;;;;2.96;100.00;98060.41;5093222;28;20214;-68
2022/01/06 03:53:45;;;;;;;8.23;3.60;;;;;;;3.04;100.00;98066.16;5092940;28;20679;-68
2022/01/06 03:56:11;;;;;;;7.13;3.40;;;;;;;3.05;100.00;98049.56;5091125;28;20668;-68
2022/01/06 03:58:39;;;;;;;4.67;3.00;;;;;;;2.96;100.00;98064.78;5093005;28;20215;-68
2022/01/06 04:01:06;;;;;;;5.13;3.80;;;;;;;2.95;100.00;98063.91;5092586;28;20324;-68
2022/01/06 04:03:34;;;;;;;7.27;3.80;;;;;;;2.97;100.00;98071.69;5092890;28;20215;-68
2022/01/06 04:06:00;;;;;;;6.07;3.67;;;;;;;2.97;100.00;98074.28;5092750;28;20207;-68
2022/01/06 04:08:27;;;;;;;7.57;3.97;;;;;;;3.04;100.00;98073.13;5092657;28;20214;-68
2022/01/06 04:10:53;;;;;;;5.53;4.00;;;;;;;3.00;100.00;98077.63;5101892;28;20206;-68
2022/01/06 04:13:20;;;;;;;6.57;3.37;;;;;;;3.03;100.00;98077.53;5100216;28;20225;-68
2022/01/06 04:15:47;;;;;;;6.17;3.80;;;;;;;3.05;100.00;98072.25;5099300;28;20213;-68
2022/01/06 04:18:14;;;;;;;6.17;4.30;;;;;;;3.10;100.00;98067.66;5100022;28;20652;-68
2022/01/06 04:20:42;;;;;;;6.70;4.17;;;;;;;3.06;100.00;98074.78;5101823;28;20221;-68
2022/01/06 04:23:08;;;;;;;6.00;3.43;;;;;;;3.10;100.00;98080.72;5099676;28;20213;-68
2022/01/06 04:25:35;;;;;;;9.33;4.07;;;;;;;3.08;100.00;98069.50;5098928;28;20707;-68
2022/01/06 04:28:01;;;;;;;8.83;3.97;;;;;;;3.09;100.00;98087.72;5099598;28;20602;-68
2022/01/06 04:30:28;;;;;;;3.97;3.00;;;;;;;3.09;100.00;98086.84;5102871;28;20238;-68
2022/01/06 04:32:54;;;;;;;7.13;4.00;;;;;;;3.11;100.00;98085.88;5100963;28;20241;-68
2022/01/06 04:35:21;;;;;;;7.87;3.90;;;;;;;3.11;100.00;98092.88;5099033;28;20234;-68
2022/01/06 04:37:49;;;;;;;5.60;3.40;;;;;;;3.05;100.00;98085.31;5102447;28;20222;-68
2022/01/06 04:40:16;;;;;;;9.53;4.00;;;;;;;3.12;100.00;98087.56;5106288;28;20246;-68
2022/01/06 04:42:42;;;;;;;9.10;3.83;;;;;;;3.09;100.00;98082.50;5098094;28;20230;-68
2022/01/06 04:45:10;;;;;;;5.23;3.50;;;;;;;3.13;100.00;98093.66;5096429;28;20261;-68
2022/01/06 04:47:37;;;;;;;5.97;3.80;;;;;;;3.09;100.00;98092.94;5094591;28;20570;-68
2022/01/06 04:50:04;;;;;;;6.20;3.77;;;;;;;3.12;100.00;98098.03;5095874;28;20221;-68
2022/01/06 04:52:31;;;;;;;8.57;4.20;;;;;;;3.07;100.00;98094.75;5095892;28;20221;-68
2022/01/06 04:54:59;;;;;;;7.13;3.70;;;;;;;3.08;100.00;98101.69;5096191;28;20211;-68
2022/01/06 04:57:25;;;;;;;7.27;3.70;;;;;;;3.04;100.00;98100.09;5095954;28;20226;-68
2022/01/06 04:59:51;;;;;;;5.87;3.47;;;;;;;3.02;100.00;98107.16;5095807;28;20681;-68
2022/01/06 05:02:18;;;;;;;7.87;3.83;;;;;;;2.92;100.00;98103.19;5095691;28;20712;-68
2022/01/06 05:04:45;;;;;;;6.73;3.87;;;;;;;2.83;100.00;98111.41;5095641;28;20673;-68
2022/01/06 05:07:11;;;;;;;6.00;3.37;;;;;;;2.74;100.00;98116.97;5095682;28;20218;-68
2022/01/06 05:09:38;;;;;;;5.00;3.27;;;;;;;2.67;100.00;98125.94;5098754;28;20206;-68
2022/01/06 05:12:06;;;;;;;5.83;3.63;;;;;;;2.68;100.00;98126.75;5105047;28;20214;-68
2022/01/06 05:14:33;;;;;;;7.63;3.73;;;;;;;2.63;100.00;98126.94;5100449;28;20210;-69
2022/01/06 05:17:00;;;;;;;8.30;4.00;;;;;;;2.64;100.00;98130.41;5101850;28;20241;-68
2022/01/06 05:19:27;;;;;;;6.60;4.10;;;;;;;2.52;100.00;98126.50;5104608;28;20257;-68
2022/01/06 05:21:53;;;;;;;9.83;3.97;;;;;;;2.55;100.00;98133.38;5105042;28;20234;-68
2022/01/06 05:24:23;;;;;;;5.40;3.33;;;;;;;2.48;100.00;98132.75;5101935;28;20325;-68
2022/01/06 05:26:50;;;;;;;6.90;4.10;;;;;;;2.62;100.00;98138.31;5101781;28;20221;-68
2022/01/06 05:29:17;;;;;;;7.30;3.60;;;;;;;2.78;100.00;98133.34;5104645;28;20222;-68
2022/01/06 05:31:44;;;;;;;8.83;4.33;;;;;;;2.88;100.00;98137.31;5104982;28;20234;-69
2022/01/06 05:34:10;;;;;;;9.00;4.23;;;;;;;2.99;100.00;98141.19;5101448;28;20234;-68
2022/01/06 05:36:37;;;;;;;5.30;3.57;;;;;;;3.05;100.00;98146.19;5101789;28;20219;-68
2022/01/06 05:39:04;;;;;;;6.70;4.00;;;;;;;3.06;100.00;98149.66;5102349;28;20218;-68
2022/01/06 05:41:30;;;;;;;7.67;4.23;;;;;;;3.14;100.00;98153.66;5105152;28;20234;-68
2022/01/06 05:43:57;;;;;;;7.73;3.93;;;;;;;3.17;100.00;98152.69;5101626;28;20207;-68
2022/01/06 05:46:25;;;;;;;10.70;4.00;;;;;;;3.19;100.00;98151.69;5101134;28;20216;-68
2022/01/06 05:48:51;;;;;;;6.37;4.03;;;;;;;3.25;100.00;98156.69;5103636;28;20215;-68
2022/01/06 05:51:18;;;;;;;7.73;4.33;;;;;;;3.26;100.00;98158.41;5105264;28;20222;-68
2022/01/06 05:53:44;;;;;;;9.27;3.87;;;;;;;3.26;100.00;98166.25;5101333;28;20589;-68
2022/01/06 05:56:11;;;;;;;5.27;3.43;;;;;;;3.24;100.00;98162.81;5101384;28;20210;-68
2022/01/06 05:58:39;;;;;;;7.33;3.87;;;;;;;3.25;100.00;98166.28;5094646;28;20206;-68
2022/01/06 06:01:06;;;;;;;5.07;4.00;;;;;;;3.20;100.00;98158.66;5094634;28;20215;-68
2022/01/06 06:03:34;;;;;;;7.50;3.93;;;;;;;3.22;100.00;98167.25;5094997;28;20219;-68
2022/01/06 06:06:01;;;;;;;6.83;4.07;;;;;;;3.23;100.00;98168.97;5093026;28;20693;-68
2022/01/06 06:08:27;;;;;;;6.57;3.90;;;;;;;3.24;100.00;98164.59;5094759;28;20211;-68
2022/01/06 06:10:53;;;;;;;7.17;4.00;;;;;;;3.17;100.00;98163.97;5103652;28;20206;-68
2022/01/06 06:13:20;;;;;;;9.63;3.73;;;;;;;3.19;100.00;98169.16;5101576;28;20210;-68
2022/01/06 06:15:46;;;;;;;8.70;4.10;;;;;;;3.23;100.00;98168.09;5100946;28;20595;-68
2022/01/06 06:18:13;;;;;;;7.20;4.03;;;;;;;3.28;100.00;98177.47;5101791;28;20577;-68
2022/01/06 06:20:41;;;;;;;8.40;3.77;;;;;;;3.34;100.00;98182.44;5105008;28;20618;-68
2022/01/06 06:23:08;;;;;;;6.17;3.70;;;;;;;3.32;100.00;98183.41;5101217;28;20239;-69
2022/01/06 06:25:36;;;;;;;6.47;3.87;;;;;;;3.33;100.00;98180.75;5100556;28;20599;-68
2022/01/06 06:28:02;;;;;;;4.60;3.20;;;;;;;3.27;100.00;98194.06;5101742;28;20430;-68
2022/01/06 06:30:28;;;;;;;7.13;4.10;;;;;;;3.11;100.00;98195.56;5103887;28;20237;-68
2022/01/06 06:32:55;;;;;;;5.73;3.70;;;;;;;3.13;100.00;98191.09;5100108;28;20221;-68
2022/01/06 06:35:22;;;;;;;8.50;4.20;;;;;;;3.00;100.00;98200.31;5100205;28;20210;-68
2022/01/06 06:37:50;;;;;;;9.87;4.10;;;;;;;2.92;100.00;98202.38;5100661;28;20574;-68
2022/01/06 06:40:19;;;;;;;6.97;3.90;;;;;;;2.95;100.00;98204.03;5104091;28;20572;-68
2022/01/06 06:42:45;;;;;;;6.50;4.07;;;;;;;2.81;100.00;98201.94;5101516;28;20237;-68
2022/01/06 06:45:12;;;;;;;5.70;4.00;;;;;;;2.80;100.00;98205.44;5100372;28;20210;-68
2022/01/06 06:47:38;;;;;;;9.93;3.73;;;;;;;2.66;100.00;98212.09;5100285;28;20660;-68
2022/01/06 06:50:07;;;;;;;10.63;4.13;;;;;;;2.58;100.00;98214.13;5104096;28;20289;-68
2022/01/06 06:52:33;;;;;;;11.43;4.83;;;;;;;2.48;100.00;98221.44;5101774;28;20222;-68
2022/01/06 06:55:01;;;;;;;7.37;4.23;;;;;;;2.36;100.00;98224.50;5100272;28;20222;-68
2022/01/06 06:57:28;;;;;;;7.00;3.90;;;;;;;2.33;100.00;98223.75;5098839;28;20214;-68
2022/01/06 06:59:54;;;;;;;7.17;4.20;;;;;;;2.26;100.00;98228.31;5103301;28;20217;-68
2022/01/06 07:02:21;;;;;;;6.97;4.03;;;;;;;2.13;100.00;98227.03;5101801;28;20249;-68
2022/01/06 07:04:47;;;;;;;10.10;4.50;;;;;;;2.11;100.00;98226.25;5099628;28;20219;-68
2022/01/06 07:07:14;;;;;;;9.63;4.67;;;;;;;2.03;100.00;98236.06;5099995;28;20553;-68
2022/01/06 07:09:40;;;;;;;9.73;5.00;;;;;;;1.92;100.00;98233.00;5104661;28;20680;-68
2022/01/06 07:12:09;;;;;;;10.43;4.53;;;;;;;1.94;100.00;98236.38;5109763;28;20210;-68
2022/01/06 07:14:35;;;;;;;8.37;4.90;;;;;;;1.88;100.00;98238.34;5099893;28;20272;-68
2022/01/06 07:17:02;;;;;;;9.80;4.90;;;;;;;1.85;100.00;98235.84;5099988;28;20213;-68
2022/01/06 07:19:29;;;;;;;9.23;4.70;;;;;;;1.78;100.00;98247.38;5099696;28;20215;-68
2022/01/06 07:21:55;;;;;;;8.23;4.43;;;;;;;1.78;100.00;98255.19;5093453;28;20227;-68
2022/01/06 07:24:22;;;;;;;12.30;5.47;;;;;;;1.74;100.00;98257.06;5091762;28;20211;-68
2022/01/06 07:26:48;;;;;;;10.13;5.20;;;;;;;1.69;100.00;98251.13;5093132;28;20218;-68
2022/01/06 07:29:16;;;;;;;11.47;4.73;;;;;;;1.67;100.00;98247.69;5093287;28;20210;-68
2022/01/06 07:31:43;;;;;;;10.70;4.80;;;;;;;1.68;100.00;98258.97;5093396;28;20250;-68
2022/01/06 07:34:09;;;;;;;9.43;5.17;;;;;;;1.69;100.00;98245.06;5093397;28;20213;-68
2022/01/06 07:36:36;;;;;;;12.53;4.80;;;;;;;1.64;100.00;98253.03;5093077;28;20214;-68
2022/01/06 07:39:04;;;;;;;10.77;5.17;;;;;;;1.66;100.00;98261.63;5093240;28;20586;-68
2022/01/06 07:41:31;;;;;;;9.63;4.80;;;;;;;1.70;100.00;98268.47;5093059;28;20660;-68
2022/01/06 07:43:57;;;;;;;10.03;4.63;;;;;;;1.69;100.00;98258.94;5093191;28;20211;-68
2022/01/06 07:46:25;;;;;;;7.90;4.40;;;;;;;1.64;100.00;98266.03;5093168;28;20215;-68
2022/01/06 07:48:56;;;;;;;7.50;4.43;;;;;;;1.65;100.00;98275.56;5091313;28;20211;-67
2022/01/06 07:51:24;;;;;;;9.97;5.17;;;;;;;1.69;100.00;98279.78;5093014;28;20218;-68
2022/01/06 07:53:50;;;;;;;8.17;5.00;;;;;;;1.66;100.00;98279.88;5092988;28;20234;-68
2022/01/06 07:56:17;;;;;;;10.20;4.93;;;;;;;1.73;100.00;98283.13;5093154;28;20225;-68
2022/01/06 07:58:43;;;;;;;8.23;4.40;;;;;;;1.79;100.00;98289.00;5093033;28;20211;-68
2022/01/06 08:01:10;;;;;;;5.90;4.07;;;;;;;1.78;100.00;98297.72;5092990;28;20221;-68
2022/01/06 08:03:38;;;;;;;8.97;5.40;;;;;;;1.73;100.00;98294.41;5092730;28;20238;-68
2022/01/06 08:06:05;;;;;;;9.43;4.57;;;;;;;1.74;100.00;98298.72;5093227;28;20211;-68
2022/01/06 08:08:31;;;;;;;12.03;5.90;;;;;;;1.79;100.00;98294.19;5092775;28;20222;-68
2022/01/06 08:10:58;;;;;;;11.13;5.60;;;;;;;1.88;100.00;98306.09;5104930;28;20581;-68
2022/01/06 08:13:24;;;;;;;6.93;4.80;;;;;;;1.87;100.00;98307.84;5102915;28;20699;-68
2022/01/06 08:15:51;;;;;;;13.37;5.13;;;;;;;1.92;100.00;98313.78;5101525;28;20214;-68
2022/01/06 08:18:17;;;;;;;9.27;5.40;;;;;;;1.99;100.00;98317.03;5104524;28;20744;-68
2022/01/06 08:20:45;;;;;;;10.87;5.13;;;;;;;2.03;100.00;98316.88;5106545;28;20210;-68
2022/01/06 08:23:11;;;;;;;12.87;5.10;;;;;;;2.11;100.00;98324.44;5102549;28;20707;-68
2022/01/06 08:25:39;;;;;;;7.17;4.53;;;;;;;2.12;100.00;98313.97;5107862;28;20210;-68
2022/01/06 08:28:07;;;;;;;10.13;5.40;;;;;;;2.15;100.00;98324.28;5106411;28;20336;-68
2022/01/06 08:30:34;;;;;;;8.90;5.30;;;;;;;2.15;100.00;98323.44;5106717;28;20580;-68
2022/01/06 08:33:01;;;;;;;12.73;5.10;;;;;;;2.11;100.00;98327.91;5102775;28;20684;-68
2022/01/06 08:35:28;;;;;;;11.83;4.80;;;;;;;2.11;100.00;98333.13;5102769;28;20222;-68
2022/01/06 08:37:56;;;;;;;6.03;4.73;;;;;;;2.07;100.00;98330.66;5103957;28;20214;-68
2022/01/06 08:40:23;;;;;;;11.73;5.87;;;;;;;2.08;100.00;98333.22;5102810;28;20213;-69
2022/01/06 08:42:49;;;;;;;8.90;4.90;;;;;;;2.13;100.00;98323.50;5099592;28;20800;-68
2022/01/06 08:45:17;;;;;;;9.20;5.33;;;;;;;2.20;100.00;98326.75;5097814;28;20672;-68
2022/01/06 08:47:44;;;;;;;12.03;5.70;;;;;;;2.22;100.00;98336.25;5098753;28;20218;-68
2022/01/06 08:50:12;;;;;;;8.07;4.80;;;;;;;2.22;100.00;98325.81;5101015;28;20280;-72
2022/01/06 08:52:39;;;;;;;10.43;5.43;;;;;;;2.26;100.00;98337.81;5102712;28;20214;-72
2022/01/06 08:55:09;;;;;;;10.80;5.30;;;;;;;2.32;100.00;98332.41;5102339;28;20237;-72
2022/01/06 08:57:35;;;;;;;9.47;5.90;;;;;;;2.32;100.00;98342.84;5103434;28;20691;-72
2022/01/06 09:00:05;;;;;;;10.93;5.90;;;;;;;2.42;100.00;98339.03;5105694;28;20218;-72
2022/01/06 09:02:31;;;;;;;7.57;5.40;;;;;;;2.44;100.00;98345.03;5101938;28;20697;-72
2022/01/06 09:05:00;;;;;;;9.03;5.80;;;;;;;2.48;100.00;98349.25;5102197;28;20215;-72
2022/01/06 09:07:26;;;;;;;11.10;5.80;;;;;;;2.50;100.00;98357.88;5101801;28;20229;-72
2022/01/06 09:09:53;;;;;;;13.57;6.17;;;;;;;2.51;100.00;98351.75;5105123;28;20217;-72
2022/01/06 09:12:21;;;;;;;8.53;5.57;;;;;;;2.62;100.00;98348.75;5109317;28;20267;-71
2022/01/06 09:14:47;;;;;;;11.47;6.10;;;;;;;2.58;100.00;98353.25;5109848;28;20218;-71
2022/01/06 09:17:15;;;;;;;9.27;6.23;;;;;;;2.62;100.00;98354.84;5109052;28;20210;-71
2022/01/06 09:19:42;;;;;;;9.33;5.40;;;;;;;2.62;100.00;98367.03;5106555;28;20222;-71
2022/01/06 09:22:08;;;;;;;13.40;5.77;;;;;;;2.70;100.00;98368.47;5108578;28;20209;-71
2022/01/06 09:24:35;;;;;;;11.80;5.40;;;;;;;2.73;100.00;98375.34;5109738;28;20218;-71
2022/01/06 09:27:01;;;;;;;7.33;4.73;;;;;;;2.80;100.00;98371.63;5108968;28;20218;-71
2022/01/06 09:29:29;;;;;;;11.10;5.23;;;;;;;2.83;100.00;98377.63;5106494;28;20221;-71
2022/01/06 09:31:56;;;;;;;11.73;5.20;;;;;;;2.91;100.00;98390.38;5109398;28;20261;-72
2022/01/06 09:34:22;;;;;;;9.70;5.00;;;;;;;2.98;100.00;98379.66;5108310;28;20675;-71
2022/01/06 09:36:49;;;;;;;9.40;4.53;;;;;;;3.08;100.00;98383.69;5107547;28;20206;-70
2022/01/06 09:39:15;;;;;;;7.90;4.60;;;;;;;3.17;100.00;98387.72;5103998;28;20222;-70
2022/01/06 09:41:42;;;;;;;7.20;4.47;;;;;;;3.48;100.00;98394.38;5111131;28;20225;-70
2022/01/06 09:44:09;;;;;;;6.23;3.80;;;;;;;3.85;100.00;98399.06;5100709;28;20238;-70
2022/01/06 09:46:36;;;;;;;9.23;4.17;;;;;;;4.22;100.00;98399.34;5103654;28;20701;-70
2022/01/06 09:49:03;;;;;;;9.73;4.00;;;;;;;4.34;100.00;98410.16;5110400;28;20214;-70
2022/01/06 09:51:31;;;;;;;7.10;4.20;;;;;;;4.49;100.00;98412.16;5110526;28;20214;-70
2022/01/06 09:53:59;;;;;;;5.80;3.97;;;;;;;4.53;100.00;98410.28;5109566;28;20665;-71
2022/01/06 09:56:27;;;;;;;10.30;4.40;;;;;;;4.38;100.00;98423.94;5103630;28;20620;-72
2022/01/06 09:58:54;;;;;;;13.07;5.50;;;;;;;4.34;100.00;98415.38;5108649;28;20220;-71
2022/01/06 10:01:20;;;;;;;7.47;4.17;;;;;;;4.35;100.00;98417.06;5108714;28;20210;-68
2022/01/06 10:03:49;;;;;;;6.90;3.80;;;;;;;4.48;100.00;98413.09;5107864;28;20238;-68
2022/01/06 10:06:17;;;;;;;8.70;4.27;;;;;;;4.44;100.00;98411.50;5101164;28;20223;-68
2022/01/06 10:08:51;;;;;;;10.97;4.23;;;;;;;4.51;100.00;98412.94;5112646;28;20214;-68
2022/01/06 10:11:19;;;;;;;9.43;3.70;;;;;;;4.62;100.00;98421.22;5098355;28;20234;-68
2022/01/06 10:13:55;;;;;;;11.07;4.20;;;;;;;4.62;98.84;98412.50;5097314;28;20579;-68
2022/01/06 10:16:24;;;;;;;10.83;4.17;;;;;;;4.53;98.70;98415.50;5096885;28;20218;-68
2022/01/06 10:19:00;;;;;;;8.67;4.03;;;;;;;4.52;99.44;98419.03;5099703;28;20570;-68
2022/01/06 10:21:31;;;;;;;5.70;3.70;;;;;;;4.32;100.00;98419.84;5096875;28;20210;-68
2022/01/06 10:24:03;;;;;;;8.50;4.50;;;;;;;4.11;100.00;98406.75;5097022;28;20243;-68
2022/01/06 10:26:29;;;;;;;6.87;3.40;;;;;;;4.14;100.00;98411.84;5096156;28;20215;-68
2022/01/06 10:28:56;;;;;;;9.30;3.50;;;;;;;4.07;99.76;98416.47;5098121;28;20213;-68
2022/01/06 10:31:27;;;;;;;8.73;3.17;;;;;;;4.02;100.00;98410.56;5096958;28;20239;-70
2022/01/06 10:33:54;;;;;;;7.33;3.10;;;;;;;3.95;100.00;98408.25;5096112;28;20215;-68
2022/01/06 10:36:28;;;;;;;7.60;3.53;;;;;;;3.86;100.00;98417.28;5098187;28;20221;-68
2022/01/06 10:38:55;;;;;;;7.70;3.33;;;;;;;3.81;100.00;98416.63;5096934;28;20215;-70
2022/01/06 10:41:22;;;;;;;9.30;3.27;;;;;;;3.86;100.00;98406.84;5096596;28;20211;-69
2022/01/06 10:43:50;;;;;;;8.70;3.63;;;;;;;3.91;100.00;98415.34;5096340;28;20230;-68
2022/01/06 10:46:28;;;;;;;8.87;3.40;;;;;;;4.34;100.00;98410.16;5098999;28;20224;-68
2022/01/06 10:48:58;;;;;;;7.10;3.80;;;;;;;4.47;100.00;98411.34;5097567;28;20264;-68
2022/01/06 10:51:37;;;;;;;7.03;3.63;;;;;;;4.52;99.92;98419.88;5095250;28;20222;-69
2022/01/06 10:54:05;;;;;;;7.83;3.33;;;;;;;4.60;98.47;98424.81;5097859;28;20215;-68
2022/01/06 10:56:32;;;;;;;7.73;3.40;;;;;;;4.48;97.30;98418.31;5096856;28;20215;-69
2022/01/06 10:58:59;;;;;;;5.83;2.80;;;;;;;4.42;96.91;98421.19;5096179;28;20227;-68
2022/01/06 11:01:27;;;;;;;5.30;2.80;;;;;;;4.40;96.47;98419.53;5096430;28;20216;-69
2022/01/06 11:03:53;;;;;;;8.63;2.80;;;;;;;4.37;94.79;98425.75;5096376;28;20733;-68
2022/01/06 11:06:20;;;;;;;5.73;2.87;;;;;;;4.21;96.38;98424.63;5108403;28;20215;-68
2022/01/06 11:08:50;;;;;;;7.87;2.90;;;;;;;4.17;98.14;98417.81;5098561;28;20218;-68
2022/01/06 11:11:30;;;;;;;4.33;2.60;;;;;;;4.24;97.05;98423.66;5100549;28;20245;-69
2022/01/06 11:13:56;;;;;;;5.17;2.83;;;;;;;4.29;97.64;98427.78;5096846;28;20297;-68
2022/01/06 11:16:23;;;;;;;8.47;2.90;;;;;;;4.22;97.47;98430.72;5097198;28;20212;-68
2022/01/06 11:18:52;;;;;;;7.83;3.70;;;;;;;4.26;98.52;98432.28;5095660;28;20230;-68
2022/01/06 11:21:22;;;;;;;8.73;2.90;;;;;;;4.21;98.30;98429.88;5099747;28;21237;-68
2022/01/06 11:24:01;;;;;;;7.33;2.80;;;;;;;4.23;96.27;98421.97;5097464;28;20239;-69
2022/01/06 11:26:27;;;;;;;5.07;2.37;;;;;;;4.34;95.35;98428.47;5097273;28;20207;-69
2022/01/06 11:28:58;;;;;;;5.93;2.50;;;;;;;4.52;97.06;98430.34;5097581;28;20220;-68
2022/01/06 11:31:26;;;;;;;7.30;2.73;;;;;;;4.64;94.32;98431.63;5099790;28;20247;-68
2022/01/06 11:33:56;;;;;;;6.57;2.53;;;;;;;4.78;92.49;98426.66;5097111;28;20220;-69
2022/01/06 11:36:26;;;;;;;6.07;2.63;;;;;;;4.89;91.03;98424.47;5097019;28;20257;-69
2022/01/06 11:38:55;;;;;;;5.10;2.40;;;;;;;4.98;89.50;98430.16;5098843;28;20600;-68